sensor_id;sensor_type;location;lat;lon;timestamp;temperature;humidity
12872;DHT22;6504;53.766;9.626;2023-01-04T00:01:39;5.70;99.90
12872;DHT22;6504;53.766;9.626;2023-01-04T00:04:15;5.70;99.90
12872;DHT22;6504;53.766;9.626;2023-01-04T00:06:46;5.80;99.90
12872;DHT22;6504;53.766;9.626;2023-01-04T00:09:15;5.80;99.90
12872;DHT22;6504;53.766;9.626;2023-01-04T00:11:50;5.80;99.90
12872;DHT22;6504;53.766;9.626;2023-01-04T00:14:19;5.80;99.90
12872;DHT22;6504;53.766;9.626;2023-01-04T00:16:47;5.80;99.90
12872;DHT22;6504;53.766;9.626;2023-01-04T00:19:16;5.80;99.90
12872;DHT22;6504;53.766;9.626;2023-01-04T00:21:45;5.80;99.90
12872;DHT22;6504;53.766;9.626;2023-01-04T00:24:13;5.80;99.90
12872;DHT22;6504;53.766;9.626;2023-01-04T00:26:42;5.80;99.90
12872;DHT22;6504;53.766;9.626;2023-01-04T00:29:14;5.80;99.90
12872;DHT22;6504;53.766;9.626;2023-01-04T00:31:46;5.90;99.90
12872;DHT22;6504;53.766;9.626;2023-01-04T00:34:15;5.80;99.90
12872;DHT22;6504;53.766;9.626;2023-01-04T00:36:45;5.80;99.90
12872;DHT22;6504;53.766;9.626;2023-01-04T00:39:15;5.90;99.90
12872;DHT22;6504;53.766;9.626;2023-01-04T00:41:45;5.90;99.90
12872;DHT22;6504;53.766;9.626;2023-01-04T00:44:27;5.90;99.90
12872;DHT22;6504;53.766;9.626;2023-01-04T00:46:56;5.90;99.90
12872;DHT22;6504;53.766;9.626;2023-01-04T00:49:27;5.90;99.90
12872;DHT22;6504;53.766;9.626;2023-01-04T00:51:56;5.90;99.90
12872;DHT22;6504;53.766;9.626;2023-01-04T00:54:27;5.90;99.90
12872;DHT22;6504;53.766;9.626;2023-01-04T00:56:57;5.90;99.90
12872;DHT22;6504;53.766;9.626;2023-01-04T00:59:27;5.90;99.90
12872;DHT22;6504;53.766;9.626;2023-01-04T01:01:56;5.90;99.90
12872;DHT22;6504;53.766;9.626;2023-01-04T01:04:25;5.90;99.90
12872;DHT22;6504;53.766;9.626;2023-01-04T01:06:55;5.90;99.90
12872;DHT22;6504;53.766;9.626;2023-01-04T01:09:23;6.00;99.90
12872;DHT22;6504;53.766;9.626;2023-01-04T01:11:53;6.00;99.90
12872;DHT22;6504;53.766;9.626;2023-01-04T01:14:23;6.00;99.90
12872;DHT22;6504;53.766;9.626;2023-01-04T01:16:54;6.00;99.90
12872;DHT22;6504;53.766;9.626;2023-01-04T01:19:26;6.00;99.90
12872;DHT22;6504;53.766;9.626;2023-01-04T01:21:55;6.00;99.90
12872;DHT22;6504;53.766;9.626;2023-01-04T01:24:24;6.00;99.90
12872;DHT22;6504;53.766;9.626;2023-01-04T01:26:53;6.00;99.90
12872;DHT22;6504;53.766;9.626;2023-01-04T01:29:22;6.00;99.90
12872;DHT22;6504;53.766;9.626;2023-01-04T01:31:51;6.00;99.90
12872;DHT22;6504;53.766;9.626;2023-01-04T01:34:24;6.00;99.90
12872;DHT22;6504;53.766;9.626;2023-01-04T01:36:52;6.00;99.90
12872;DHT22;6504;53.766;9.626;2023-01-04T01:39:21;6.00;99.90
12872;DHT22;6504;53.766;9.626;2023-01-04T01:41:52;6.00;99.90
12872;DHT22;6504;53.766;9.626;2023-01-04T01:44:57;6.00;99.90
12872;DHT22;6504;53.766;9.626;2023-01-04T01:47:29;6.00;99.90
12872;DHT22;6504;53.766;9.626;2023-01-04T01:50:03;6.00;99.90
12872;DHT22;6504;53.766;9.626;2023-01-04T01:52:36;6.10;99.90
12872;DHT22;6504;53.766;9.626;2023-01-04T01:55:08;6.10;99.90
12872;DHT22;6504;53.766;9.626;2023-01-04T01:57:40;6.10;99.90
12872;DHT22;6504;53.766;9.626;2023-01-04T02:00:11;6.10;99.90
12872;DHT22;6504;53.766;9.626;2023-01-04T02:02:47;6.00;99.90
12872;DHT22;6504;53.766;9.626;2023-01-04T02:05:21;6.10;99.90
12872;DHT22;6504;53.766;9.626;2023-01-04T02:07:51;6.10;99.90
12872;DHT22;6504;53.766;9.626;2023-01-04T02:10:24;6.10;99.90
12872;DHT22;6504;53.766;9.626;2023-01-04T02:12:53;6.10;99.90
12872;DHT22;6504;53.766;9.626;2023-01-04T02:15:23;6.10;99.90
12872;DHT22;6504;53.766;9.626;2023-01-04T02:18:01;6.10;99.90
12872;DHT22;6504;53.766;9.626;2023-01-04T02:20:43;6.10;99.90
12872;DHT22;6504;53.766;9.626;2023-01-04T02:23:49;6.10;99.90
12872;DHT22;6504;53.766;9.626;2023-01-04T02:32:39;6.10;99.90
12872;DHT22;6504;53.766;9.626;2023-01-04T02:35:16;6.10;99.90
12872;DHT22;6504;53.766;9.626;2023-01-04T02:37:50;6.10;99.90
12872;DHT22;6504;53.766;9.626;2023-01-04T02:40:27;6.20;99.90
12872;DHT22;6504;53.766;9.626;2023-01-04T02:43:02;6.20;99.90
12872;DHT22;6504;53.766;9.626;2023-01-04T02:45:58;6.20;99.90
12872;DHT22;6504;53.766;9.626;2023-01-04T02:48:35;6.20;99.90
12872;DHT22;6504;53.766;9.626;2023-01-04T02:51:28;6.20;99.90
12872;DHT22;6504;53.766;9.626;2023-01-04T02:53:58;6.20;99.90
12872;DHT22;6504;53.766;9.626;2023-01-04T02:56:33;6.20;99.90
12872;DHT22;6504;53.766;9.626;2023-01-04T02:59:32;6.20;99.90
12872;DHT22;6504;53.766;9.626;2023-01-04T03:02:15;6.20;99.90
12872;DHT22;6504;53.766;9.626;2023-01-04T03:05:14;6.20;99.90
12872;DHT22;6504;53.766;9.626;2023-01-04T03:08:25;6.30;99.90
12872;DHT22;6504;53.766;9.626;2023-01-04T03:10:59;6.20;99.90
12872;DHT22;6504;53.766;9.626;2023-01-04T03:13:33;6.30;99.90
12872;DHT22;6504;53.766;9.626;2023-01-04T03:16:05;6.30;99.90
12872;DHT22;6504;53.766;9.626;2023-01-04T03:18:38;6.30;99.90
12872;DHT22;6504;53.766;9.626;2023-01-04T03:21:11;6.30;99.90
12872;DHT22;6504;53.766;9.626;2023-01-04T03:23:40;6.30;99.90
12872;DHT22;6504;53.766;9.626;2023-01-04T03:26:29;6.30;99.90
12872;DHT22;6504;53.766;9.626;2023-01-04T03:29:21;6.30;99.90
12872;DHT22;6504;53.766;9.626;2023-01-04T03:32:11;6.30;99.90
12872;DHT22;6504;53.766;9.626;2023-01-04T03:34:58;6.30;99.90
12872;DHT22;6504;53.766;9.626;2023-01-04T03:37:49;6.30;99.90
12872;DHT22;6504;53.766;9.626;2023-01-04T03:40:42;6.30;99.90
12872;DHT22;6504;53.766;9.626;2023-01-04T03:43:36;6.30;99.90
12872;DHT22;6504;53.766;9.626;2023-01-04T03:46:30;6.30;99.90
12872;DHT22;6504;53.766;9.626;2023-01-04T03:49:22;6.30;99.90
12872;DHT22;6504;53.766;9.626;2023-01-04T03:51:56;6.30;99.90
12872;DHT22;6504;53.766;9.626;2023-01-04T03:54:30;6.30;99.90
12872;DHT22;6504;53.766;9.626;2023-01-04T03:56:59;6.30;99.90
12872;DHT22;6504;53.766;9.626;2023-01-04T03:59:27;6.30;99.90
12872;DHT22;6504;53.766;9.626;2023-01-04T04:01:55;6.30;99.90
12872;DHT22;6504;53.766;9.626;2023-01-04T04:04:23;6.30;99.90
12872;DHT22;6504;53.766;9.626;2023-01-04T04:07:09;6.20;99.90
12872;DHT22;6504;53.766;9.626;2023-01-04T04:09:56;6.20;99.90
12872;DHT22;6504;53.766;9.626;2023-01-04T04:12:24;6.30;99.90
12872;DHT22;6504;53.766;9.626;2023-01-04T04:14:52;6.30;99.90
12872;DHT22;6504;53.766;9.626;2023-01-04T04:17:20;6.30;99.90
12872;DHT22;6504;53.766;9.626;2023-01-04T04:19:48;6.30;99.90
12872;DHT22;6504;53.766;9.626;2023-01-04T04:22:16;6.30;99.90
12872;DHT22;6504;53.766;9.626;2023-01-04T04:24:44;6.30;99.90
12872;DHT22;6504;53.766;9.626;2023-01-04T04:27:13;6.30;99.90
12872;DHT22;6504;53.766;9.626;2023-01-04T04:29:41;6.30;99.90
12872;DHT22;6504;53.766;9.626;2023-01-04T04:32:09;6.30;99.90
12872;DHT22;6504;53.766;9.626;2023-01-04T04:34:38;6.30;99.90
12872;DHT22;6504;53.766;9.626;2023-01-04T04:37:06;6.30;99.90
12872;DHT22;6504;53.766;9.626;2023-01-04T04:39:34;6.30;99.90
12872;DHT22;6504;53.766;9.626;2023-01-04T04:42:02;6.30;99.90
12872;DHT22;6504;53.766;9.626;2023-01-04T04:44:33;6.30;99.90
12872;DHT22;6504;53.766;9.626;2023-01-04T04:47:01;6.30;99.90
12872;DHT22;6504;53.766;9.626;2023-01-04T04:49:29;6.30;99.90
12872;DHT22;6504;53.766;9.626;2023-01-04T04:51:58;6.30;99.90
12872;DHT22;6504;53.766;9.626;2023-01-04T04:54:26;6.40;99.90
12872;DHT22;6504;53.766;9.626;2023-01-04T04:56:54;6.30;99.90
12872;DHT22;6504;53.766;9.626;2023-01-04T04:59:22;6.30;99.90
12872;DHT22;6504;53.766;9.626;2023-01-04T05:01:52;6.40;99.90
12872;DHT22;6504;53.766;9.626;2023-01-04T05:04:20;6.40;99.90
12872;DHT22;6504;53.766;9.626;2023-01-04T05:06:49;6.40;99.90
12872;DHT22;6504;53.766;9.626;2023-01-04T05:09:18;6.40;99.90
12872;DHT22;6504;53.766;9.626;2023-01-04T05:11:46;6.40;99.90
12872;DHT22;6504;53.766;9.626;2023-01-04T05:14:31;6.40;99.90
12872;DHT22;6504;53.766;9.626;2023-01-04T05:17:01;6.40;99.90
12872;DHT22;6504;53.766;9.626;2023-01-04T05:19:29;6.40;99.90
12872;DHT22;6504;53.766;9.626;2023-01-04T05:21:57;6.50;99.90
12872;DHT22;6504;53.766;9.626;2023-01-04T05:24:25;6.50;99.90
12872;DHT22;6504;53.766;9.626;2023-01-04T05:26:53;6.50;99.90
12872;DHT22;6504;53.766;9.626;2023-01-04T05:29:21;6.60;99.90
12872;DHT22;6504;53.766;9.626;2023-01-04T05:32:08;6.60;99.90
12872;DHT22;6504;53.766;9.626;2023-01-04T05:34:36;6.60;99.90
12872;DHT22;6504;53.766;9.626;2023-01-04T05:37:04;6.60;99.90
12872;DHT22;6504;53.766;9.626;2023-01-04T05:39:32;6.70;99.90
12872;DHT22;6504;53.766;9.626;2023-01-04T05:42:00;6.70;99.90
12872;DHT22;6504;53.766;9.626;2023-01-04T05:44:46;6.70;99.90
12872;DHT22;6504;53.766;9.626;2023-01-04T05:47:15;6.70;99.90
12872;DHT22;6504;53.766;9.626;2023-01-04T05:49:43;6.80;99.90
12872;DHT22;6504;53.766;9.626;2023-01-04T05:52:11;6.80;99.90
12872;DHT22;6504;53.766;9.626;2023-01-04T05:54:39;6.80;99.90
12872;DHT22;6504;53.766;9.626;2023-01-04T05:57:08;6.80;99.90
12872;DHT22;6504;53.766;9.626;2023-01-04T05:59:36;6.80;99.90
12872;DHT22;6504;53.766;9.626;2023-01-04T06:02:12;6.80;99.90
12872;DHT22;6504;53.766;9.626;2023-01-04T06:04:43;6.90;99.90
12872;DHT22;6504;53.766;9.626;2023-01-04T06:07:12;6.90;99.90
12872;DHT22;6504;53.766;9.626;2023-01-04T06:09:40;6.90;99.90
12872;DHT22;6504;53.766;9.626;2023-01-04T06:12:08;6.90;99.90
12872;DHT22;6504;53.766;9.626;2023-01-04T06:14:36;7.00;99.90
12872;DHT22;6504;53.766;9.626;2023-01-04T06:17:05;7.00;99.90
12872;DHT22;6504;53.766;9.626;2023-01-04T06:19:34;7.00;99.90
12872;DHT22;6504;53.766;9.626;2023-01-04T06:22:03;7.00;99.90
12872;DHT22;6504;53.766;9.626;2023-01-04T06:24:32;7.00;99.90
12872;DHT22;6504;53.766;9.626;2023-01-04T06:27:00;7.10;99.90
12872;DHT22;6504;53.766;9.626;2023-01-04T06:29:29;7.10;99.90
12872;DHT22;6504;53.766;9.626;2023-01-04T06:31:57;7.10;99.90
12872;DHT22;6504;53.766;9.626;2023-01-04T06:34:25;7.10;99.90
12872;DHT22;6504;53.766;9.626;2023-01-04T06:36:57;7.10;99.90
12872;DHT22;6504;53.766;9.626;2023-01-04T06:39:26;7.20;99.90
12872;DHT22;6504;53.766;9.626;2023-01-04T06:41:54;7.20;99.90
12872;DHT22;6504;53.766;9.626;2023-01-04T06:44:32;7.20;99.90
12872;DHT22;6504;53.766;9.626;2023-01-04T06:47:00;7.30;99.90
12872;DHT22;6504;53.766;9.626;2023-01-04T06:49:28;7.30;99.90
12872;DHT22;6504;53.766;9.626;2023-01-04T06:51:56;7.30;99.90
12872;DHT22;6504;53.766;9.626;2023-01-04T06:54:25;7.30;99.90
12872;DHT22;6504;53.766;9.626;2023-01-04T06:56:53;7.30;99.90
12872;DHT22;6504;53.766;9.626;2023-01-04T06:59:21;7.30;99.90
12872;DHT22;6504;53.766;9.626;2023-01-04T07:01:49;7.40;99.90
12872;DHT22;6504;53.766;9.626;2023-01-04T07:04:18;7.40;99.90
12872;DHT22;6504;53.766;9.626;2023-01-04T07:06:46;7.40;99.90
12872;DHT22;6504;53.766;9.626;2023-01-04T07:09:14;7.50;99.90
12872;DHT22;6504;53.766;9.626;2023-01-04T07:11:43;7.50;99.90
12872;DHT22;6504;53.766;9.626;2023-01-04T07:14:11;7.50;99.90
12872;DHT22;6504;53.766;9.626;2023-01-04T07:16:39;7.50;99.90
12872;DHT22;6504;53.766;9.626;2023-01-04T07:19:08;7.60;99.90
12872;DHT22;6504;53.766;9.626;2023-01-04T07:21:36;7.60;99.90
12872;DHT22;6504;53.766;9.626;2023-01-04T07:24:04;7.60;99.90
12872;DHT22;6504;53.766;9.626;2023-01-04T07:26:32;7.60;99.90
12872;DHT22;6504;53.766;9.626;2023-01-04T07:29:02;7.60;99.90
12872;DHT22;6504;53.766;9.626;2023-01-04T07:31:44;7.70;99.90
12872;DHT22;6504;53.766;9.626;2023-01-04T07:34:14;7.80;99.90
12872;DHT22;6504;53.766;9.626;2023-01-04T07:36:42;7.80;99.90
12872;DHT22;6504;53.766;9.626;2023-01-04T07:39:10;7.80;99.90
12872;DHT22;6504;53.766;9.626;2023-01-04T07:41:40;7.90;99.90
12872;DHT22;6504;53.766;9.626;2023-01-04T07:44:10;7.90;99.90
12872;DHT22;6504;53.766;9.626;2023-01-04T07:46:39;7.90;99.90
12872;DHT22;6504;53.766;9.626;2023-01-04T07:49:10;8.00;99.90
12872;DHT22;6504;53.766;9.626;2023-01-04T07:51:44;8.00;99.90
12872;DHT22;6504;53.766;9.626;2023-01-04T07:54:12;8.00;99.90
12872;DHT22;6504;53.766;9.626;2023-01-04T07:56:41;8.10;99.90
12872;DHT22;6504;53.766;9.626;2023-01-04T07:59:12;8.10;99.90
12872;DHT22;6504;53.766;9.626;2023-01-04T08:01:41;8.20;99.90
12872;DHT22;6504;53.766;9.626;2023-01-04T08:04:11;8.20;99.90
12872;DHT22;6504;53.766;9.626;2023-01-04T08:06:41;8.20;99.90
12872;DHT22;6504;53.766;9.626;2023-01-04T08:09:10;8.30;99.90
12872;DHT22;6504;53.766;9.626;2023-01-04T08:11:39;8.30;99.90
12872;DHT22;6504;53.766;9.626;2023-01-04T08:14:07;8.30;99.90
12872;DHT22;6504;53.766;9.626;2023-01-04T08:16:38;8.30;99.90
12872;DHT22;6504;53.766;9.626;2023-01-04T08:19:11;8.40;99.90
12872;DHT22;6504;53.766;9.626;2023-01-04T08:21:40;8.40;99.90
12872;DHT22;6504;53.766;9.626;2023-01-04T08:24:09;8.40;99.90
12872;DHT22;6504;53.766;9.626;2023-01-04T08:26:38;8.40;99.90
12872;DHT22;6504;53.766;9.626;2023-01-04T08:29:06;8.50;99.90
12872;DHT22;6504;53.766;9.626;2023-01-04T08:31:34;8.50;99.90
12872;DHT22;6504;53.766;9.626;2023-01-04T08:34:06;8.50;99.90
12872;DHT22;6504;53.766;9.626;2023-01-04T08:36:42;8.50;99.90
12872;DHT22;6504;53.766;9.626;2023-01-04T08:39:11;8.50;99.90
12872;DHT22;6504;53.766;9.626;2023-01-04T08:41:39;8.60;99.90
12872;DHT22;6504;53.766;9.626;2023-01-04T08:44:36;8.60;99.90
12872;DHT22;6504;53.766;9.626;2023-01-04T08:47:04;8.60;99.90
12872;DHT22;6504;53.766;9.626;2023-01-04T08:49:36;8.60;99.90
12872;DHT22;6504;53.766;9.626;2023-01-04T08:52:04;8.70;99.90
12872;DHT22;6504;53.766;9.626;2023-01-04T08:54:34;8.70;99.90
12872;DHT22;6504;53.766;9.626;2023-01-04T08:57:03;8.70;99.90
12872;DHT22;6504;53.766;9.626;2023-01-04T08:59:31;8.70;99.90
12872;DHT22;6504;53.766;9.626;2023-01-04T09:01:59;8.80;99.90
12872;DHT22;6504;53.766;9.626;2023-01-04T09:04:32;8.80;99.90
12872;DHT22;6504;53.766;9.626;2023-01-04T09:07:01;8.80;99.90
12872;DHT22;6504;53.766;9.626;2023-01-04T09:09:29;8.80;99.90
12872;DHT22;6504;53.766;9.626;2023-01-04T09:11:57;8.90;99.90
12872;DHT22;6504;53.766;9.626;2023-01-04T09:14:26;8.90;99.90
12872;DHT22;6504;53.766;9.626;2023-01-04T09:16:54;8.90;99.90
12872;DHT22;6504;53.766;9.626;2023-01-04T09:19:23;8.90;99.90
12872;DHT22;6504;53.766;9.626;2023-01-04T09:21:52;9.00;99.90
12872;DHT22;6504;53.766;9.626;2023-01-04T09:24:22;9.00;99.90
12872;DHT22;6504;53.766;9.626;2023-01-04T09:26:50;9.00;99.90
12872;DHT22;6504;53.766;9.626;2023-01-04T09:29:18;9.00;99.90
12872;DHT22;6504;53.766;9.626;2023-01-04T09:31:46;9.10;99.90
12872;DHT22;6504;53.766;9.626;2023-01-04T09:34:14;9.10;99.90
12872;DHT22;6504;53.766;9.626;2023-01-04T09:36:44;9.10;99.90
12872;DHT22;6504;53.766;9.626;2023-01-04T09:39:13;9.20;99.90
12872;DHT22;6504;53.766;9.626;2023-01-04T09:41:55;9.20;99.90
12872;DHT22;6504;53.766;9.626;2023-01-04T09:44:35;9.20;99.90
12872;DHT22;6504;53.766;9.626;2023-01-04T09:47:31;9.20;99.90
12872;DHT22;6504;53.766;9.626;2023-01-04T09:50:05;9.30;99.90
12872;DHT22;6504;53.766;9.626;2023-01-04T09:52:48;9.30;99.90
12872;DHT22;6504;53.766;9.626;2023-01-04T09:55:20;9.30;99.90
12872;DHT22;6504;53.766;9.626;2023-01-04T09:58:12;9.40;99.90
12872;DHT22;6504;53.766;9.626;2023-01-04T10:00:47;9.40;99.90
12872;DHT22;6504;53.766;9.626;2023-01-04T10:03:21;9.40;99.90
12872;DHT22;6504;53.766;9.626;2023-01-04T10:05:52;9.40;99.90
12872;DHT22;6504;53.766;9.626;2023-01-04T10:08:21;9.50;99.90
12872;DHT22;6504;53.766;9.626;2023-01-04T10:10:57;9.40;99.90
12872;DHT22;6504;53.766;9.626;2023-01-04T10:13:46;9.50;99.90
12872;DHT22;6504;53.766;9.626;2023-01-04T10:16:22;9.50;99.90
12872;DHT22;6504;53.766;9.626;2023-01-04T10:19:25;9.50;99.90
12872;DHT22;6504;53.766;9.626;2023-01-04T10:22:21;9.60;99.90
12872;DHT22;6504;53.766;9.626;2023-01-04T10:24:59;9.60;99.90
12872;DHT22;6504;53.766;9.626;2023-01-04T10:27:40;9.60;99.90
12872;DHT22;6504;53.766;9.626;2023-01-04T10:30:23;9.60;99.90
12872;DHT22;6504;53.766;9.626;2023-01-04T10:32:59;9.60;99.90
12872;DHT22;6504;53.766;9.626;2023-01-04T10:35:32;9.70;99.90
12872;DHT22;6504;53.766;9.626;2023-01-04T10:38:07;9.70;99.90
12872;DHT22;6504;53.766;9.626;2023-01-04T10:40:38;9.70;99.90
12872;DHT22;6504;53.766;9.626;2023-01-04T10:43:14;9.70;99.90
12872;DHT22;6504;53.766;9.626;2023-01-04T10:45:50;9.70;99.90
12872;DHT22;6504;53.766;9.626;2023-01-04T10:48:26;9.80;99.90
12872;DHT22;6504;53.766;9.626;2023-01-04T10:50:59;9.80;99.90
12872;DHT22;6504;53.766;9.626;2023-01-04T10:53:38;9.80;99.90
12872;DHT22;6504;53.766;9.626;2023-01-04T10:56:15;9.80;99.90
12872;DHT22;6504;53.766;9.626;2023-01-04T10:58:58;9.90;99.90
12872;DHT22;6504;53.766;9.626;2023-01-04T11:01:34;9.90;99.90
12872;DHT22;6504;53.766;9.626;2023-01-04T11:04:10;9.90;99.90
12872;DHT22;6504;53.766;9.626;2023-01-04T11:06:45;10.00;99.90
12872;DHT22;6504;53.766;9.626;2023-01-04T11:09:18;10.00;99.90
12872;DHT22;6504;53.766;9.626;2023-01-04T11:11:54;10.00;99.90
12872;DHT22;6504;53.766;9.626;2023-01-04T11:14:23;10.00;99.90
12872;DHT22;6504;53.766;9.626;2023-01-04T11:17:00;10.10;99.90
12872;DHT22;6504;53.766;9.626;2023-01-04T11:19:32;10.10;99.90
12872;DHT22;6504;53.766;9.626;2023-01-04T11:22:05;10.10;99.90
12872;DHT22;6504;53.766;9.626;2023-01-04T11:24:38;10.20;99.90
12872;DHT22;6504;53.766;9.626;2023-01-04T11:27:30;10.20;99.90
12872;DHT22;6504;53.766;9.626;2023-01-04T11:30:00;10.20;99.90
12872;DHT22;6504;53.766;9.626;2023-01-04T11:32:37;10.20;99.90
12872;DHT22;6504;53.766;9.626;2023-01-04T11:35:07;10.20;99.90
12872;DHT22;6504;53.766;9.626;2023-01-04T11:37:36;10.30;99.90
12872;DHT22;6504;53.766;9.626;2023-01-04T11:40:22;10.30;99.90
12872;DHT22;6504;53.766;9.626;2023-01-04T11:42:52;10.30;99.90
12872;DHT22;6504;53.766;9.626;2023-01-04T11:45:36;10.30;99.90
12872;DHT22;6504;53.766;9.626;2023-01-04T11:48:13;10.30;99.90
12872;DHT22;6504;53.766;9.626;2023-01-04T11:50:42;10.30;99.90
12872;DHT22;6504;53.766;9.626;2023-01-04T11:53:22;10.30;99.90
12872;DHT22;6504;53.766;9.626;2023-01-04T11:55:51;10.30;99.90
12872;DHT22;6504;53.766;9.626;2023-01-04T11:58:34;10.30;99.90
12872;DHT22;6504;53.766;9.626;2023-01-04T12:01:02;10.30;99.90
12872;DHT22;6504;53.766;9.626;2023-01-04T12:03:36;10.30;99.90
12872;DHT22;6504;53.766;9.626;2023-01-04T12:06:10;10.30;99.90
12872;DHT22;6504;53.766;9.626;2023-01-04T12:08:41;10.30;99.90
12872;DHT22;6504;53.766;9.626;2023-01-04T12:11:18;10.30;99.90
12872;DHT22;6504;53.766;9.626;2023-01-04T12:13:47;10.30;99.90
12872;DHT22;6504;53.766;9.626;2023-01-04T12:16:20;10.30;99.90
12872;DHT22;6504;53.766;9.626;2023-01-04T12:18:53;10.30;99.90
12872;DHT22;6504;53.766;9.626;2023-01-04T12:21:24;10.30;99.90
12872;DHT22;6504;53.766;9.626;2023-01-04T12:23:53;10.30;99.90
12872;DHT22;6504;53.766;9.626;2023-01-04T12:26:22;10.30;99.90
12872;DHT22;6504;53.766;9.626;2023-01-04T12:28:52;10.30;99.90
12872;DHT22;6504;53.766;9.626;2023-01-04T12:31:39;10.30;99.90
12872;DHT22;6504;53.766;9.626;2023-01-04T12:37:46;10.40;99.90
12872;DHT22;6504;53.766;9.626;2023-01-04T12:40:52;10.40;99.90
12872;DHT22;6504;53.766;9.626;2023-01-04T12:43:36;10.40;99.90
12872;DHT22;6504;53.766;9.626;2023-01-04T12:46:32;10.40;99.90
12872;DHT22;6504;53.766;9.626;2023-01-04T12:49:43;10.40;99.90
12872;DHT22;6504;53.766;9.626;2023-01-04T12:52:34;10.40;99.90
12872;DHT22;6504;53.766;9.626;2023-01-04T12:55:52;10.40;99.90
12872;DHT22;6504;53.766;9.626;2023-01-04T13:02:16;10.40;99.90
12872;DHT22;6504;53.766;9.626;2023-01-04T13:04:45;10.40;99.90
12872;DHT22;6504;53.766;9.626;2023-01-04T13:07:17;10.40;99.90
12872;DHT22;6504;53.766;9.626;2023-01-04T13:09:51;10.40;99.90
12872;DHT22;6504;53.766;9.626;2023-01-04T13:12:48;10.40;99.90
12872;DHT22;6504;53.766;9.626;2023-01-04T13:15:22;10.40;99.90
12872;DHT22;6504;53.766;9.626;2023-01-04T13:17:52;10.50;99.90
12872;DHT22;6504;53.766;9.626;2023-01-04T13:20:22;10.50;99.90
12872;DHT22;6504;53.766;9.626;2023-01-04T13:22:53;10.50;99.90
12872;DHT22;6504;53.766;9.626;2023-01-04T13:25:23;10.50;99.90
12872;DHT22;6504;53.766;9.626;2023-01-04T13:28:00;10.50;99.90
12872;DHT22;6504;53.766;9.626;2023-01-04T13:30:32;10.50;99.90
12872;DHT22;6504;53.766;9.626;2023-01-04T13:33:07;10.50;99.90
12872;DHT22;6504;53.766;9.626;2023-01-04T13:36:03;10.50;99.90
12872;DHT22;6504;53.766;9.626;2023-01-04T13:38:36;10.60;99.90
12872;DHT22;6504;53.766;9.626;2023-01-04T13:41:18;10.60;99.90
12872;DHT22;6504;53.766;9.626;2023-01-04T13:43:56;10.60;99.90
12872;DHT22;6504;53.766;9.626;2023-01-04T13:46:29;10.60;99.90
12872;DHT22;6504;53.766;9.626;2023-01-04T13:49:00;10.60;99.90
12872;DHT22;6504;53.766;9.626;2023-01-04T13:51:30;10.60;99.90
12872;DHT22;6504;53.766;9.626;2023-01-04T13:54:05;10.60;99.90
12872;DHT22;6504;53.766;9.626;2023-01-04T13:56:34;10.60;99.90
12872;DHT22;6504;53.766;9.626;2023-01-04T13:59:03;10.70;99.90
12872;DHT22;6504;53.766;9.626;2023-01-04T14:01:33;10.70;99.90
12872;DHT22;6504;53.766;9.626;2023-01-04T14:04:05;10.70;99.90
12872;DHT22;6504;53.766;9.626;2023-01-04T14:06:39;10.70;99.90
12872;DHT22;6504;53.766;9.626;2023-01-04T14:09:14;10.70;99.90
12872;DHT22;6504;53.766;9.626;2023-01-04T14:11:44;10.70;99.90
12872;DHT22;6504;53.766;9.626;2023-01-04T14:14:44;10.70;99.90
12872;DHT22;6504;53.766;9.626;2023-01-04T14:17:22;10.70;99.90
12872;DHT22;6504;53.766;9.626;2023-01-04T14:19:54;10.70;99.90
12872;DHT22;6504;53.766;9.626;2023-01-04T14:22:36;10.70;99.90
12872;DHT22;6504;53.766;9.626;2023-01-04T14:28:26;10.70;99.90
12872;DHT22;6504;53.766;9.626;2023-01-04T14:31:12;10.70;99.90
12872;DHT22;6504;53.766;9.626;2023-01-04T14:33:43;10.60;99.90
12872;DHT22;6504;53.766;9.626;2023-01-04T14:36:15;10.70;99.90
12872;DHT22;6504;53.766;9.626;2023-01-04T14:38:52;10.60;99.90
12872;DHT22;6504;53.766;9.626;2023-01-04T14:41:23;10.60;99.90
12872;DHT22;6504;53.766;9.626;2023-01-04T14:43:52;10.70;99.90
12872;DHT22;6504;53.766;9.626;2023-01-04T14:46:31;10.60;99.90
12872;DHT22;6504;53.766;9.626;2023-01-04T14:48:59;10.60;99.90
12872;DHT22;6504;53.766;9.626;2023-01-04T14:51:31;10.60;99.90
12872;DHT22;6504;53.766;9.626;2023-01-04T14:54:00;10.60;99.90
12872;DHT22;6504;53.766;9.626;2023-01-04T14:56:28;10.60;99.90
12872;DHT22;6504;53.766;9.626;2023-01-04T14:58:56;10.60;99.90
12872;DHT22;6504;53.766;9.626;2023-01-04T15:01:24;10.60;99.90
12872;DHT22;6504;53.766;9.626;2023-01-04T15:03:54;10.70;99.90
12872;DHT22;6504;53.766;9.626;2023-01-04T15:06:22;10.70;99.90
12872;DHT22;6504;53.766;9.626;2023-01-04T15:08:51;10.70;99.90
12872;DHT22;6504;53.766;9.626;2023-01-04T15:11:19;10.70;99.90
12872;DHT22;6504;53.766;9.626;2023-01-04T15:13:47;10.60;99.90
12872;DHT22;6504;53.766;9.626;2023-01-04T15:16:16;10.70;99.90
12872;DHT22;6504;53.766;9.626;2023-01-04T15:18:45;10.70;99.90
12872;DHT22;6504;53.766;9.626;2023-01-04T15:21:15;10.70;99.90
12872;DHT22;6504;53.766;9.626;2023-01-04T15:23:43;10.70;99.90
12872;DHT22;6504;53.766;9.626;2023-01-04T15:26:11;10.70;99.90
12872;DHT22;6504;53.766;9.626;2023-01-04T15:28:39;10.70;99.90
12872;DHT22;6504;53.766;9.626;2023-01-04T15:31:09;10.70;99.90
12872;DHT22;6504;53.766;9.626;2023-01-04T15:33:37;10.70;99.90
12872;DHT22;6504;53.766;9.626;2023-01-04T15:36:07;10.70;99.90
12872;DHT22;6504;53.766;9.626;2023-01-04T15:38:37;10.70;99.90
12872;DHT22;6504;53.766;9.626;2023-01-04T15:41:07;10.70;99.90
12872;DHT22;6504;53.766;9.626;2023-01-04T15:43:36;10.70;99.90
12872;DHT22;6504;53.766;9.626;2023-01-04T15:46:04;10.70;99.90
12872;DHT22;6504;53.766;9.626;2023-01-04T15:48:34;10.70;99.90
12872;DHT22;6504;53.766;9.626;2023-01-04T15:51:04;10.70;99.90
12872;DHT22;6504;53.766;9.626;2023-01-04T15:53:33;10.70;99.90
12872;DHT22;6504;53.766;9.626;2023-01-04T15:56:07;10.70;99.90
12872;DHT22;6504;53.766;9.626;2023-01-04T15:58:36;10.70;99.90
12872;DHT22;6504;53.766;9.626;2023-01-04T16:01:08;10.80;99.90
12872;DHT22;6504;53.766;9.626;2023-01-04T16:03:37;10.70;99.90
12872;DHT22;6504;53.766;9.626;2023-01-04T16:06:06;10.70;99.90
12872;DHT22;6504;53.766;9.626;2023-01-04T16:08:34;10.70;99.90
12872;DHT22;6504;53.766;9.626;2023-01-04T16:11:12;10.70;99.90
12872;DHT22;6504;53.766;9.626;2023-01-04T16:13:41;10.70;99.90
12872;DHT22;6504;53.766;9.626;2023-01-04T16:16:10;10.70;99.90
12872;DHT22;6504;53.766;9.626;2023-01-04T16:18:42;10.70;99.90
12872;DHT22;6504;53.766;9.626;2023-01-04T16:21:11;10.70;99.90
12872;DHT22;6504;53.766;9.626;2023-01-04T16:23:39;10.70;99.90
12872;DHT22;6504;53.766;9.626;2023-01-04T16:26:10;10.70;99.90
12872;DHT22;6504;53.766;9.626;2023-01-04T16:28:39;10.60;99.90
12872;DHT22;6504;53.766;9.626;2023-01-04T16:31:08;10.60;99.90
12872;DHT22;6504;53.766;9.626;2023-01-04T16:33:36;10.60;99.90
12872;DHT22;6504;53.766;9.626;2023-01-04T16:36:07;10.50;99.90
12872;DHT22;6504;53.766;9.626;2023-01-04T16:38:37;10.50;99.90
12872;DHT22;6504;53.766;9.626;2023-01-04T16:41:07;10.50;99.90
12872;DHT22;6504;53.766;9.626;2023-01-04T16:43:43;10.50;99.90
12872;DHT22;6504;53.766;9.626;2023-01-04T16:46:23;10.50;99.90
12872;DHT22;6504;53.766;9.626;2023-01-04T16:48:57;10.50;99.90
12872;DHT22;6504;53.766;9.626;2023-01-04T16:51:27;10.50;99.90
12872;DHT22;6504;53.766;9.626;2023-01-04T16:53:56;10.50;99.90